SCDA 221000Z 09008KT 9999 SCT025 14/08 Q1017